sensor_id;sensor_type;location;lat;lon;timestamp;P1;durP1;ratioP1;P2;durP2;ratioP2
7665;SDS011;3875;46.562;4.898;2023-04-03T00:01:14;1.63;;;1.53;;
7665;SDS011;3875;46.562;4.898;2023-04-03T00:03:40;1.73;;;1.63;;
7665;SDS011;3875;46.562;4.898;2023-04-03T00:06:06;1.80;;;1.50;;
7665;SDS011;3875;46.562;4.898;2023-04-03T00:08:34;2.77;;;1.83;;
7665;SDS011;3875;46.562;4.898;2023-04-03T00:11:00;1.50;;;1.40;;
7665;SDS011;3875;46.562;4.898;2023-04-03T00:13:26;1.80;;;1.70;;
7665;SDS011;3875;46.562;4.898;2023-04-03T00:15:52;2.53;;;1.70;;
7665;SDS011;3875;46.562;4.898;2023-04-03T00:18:18;1.87;;;1.60;;
7665;SDS011;3875;46.562;4.898;2023-04-03T00:20:43;1.73;;;1.63;;
7665;SDS011;3875;46.562;4.898;2023-04-03T00:23:09;1.57;;;1.47;;
7665;SDS011;3875;46.562;4.898;2023-04-03T00:25:35;4.37;;;2.00;;
7665;SDS011;3875;46.562;4.898;2023-04-03T00:28:01;2.77;;;2.00;;
7665;SDS011;3875;46.562;4.898;2023-04-03T00:30:28;2.37;;;2.17;;
7665;SDS011;3875;46.562;4.898;2023-04-03T00:32:53;2.73;;;2.23;;
7665;SDS011;3875;46.562;4.898;2023-04-03T00:35:20;2.27;;;2.07;;
7665;SDS011;3875;46.562;4.898;2023-04-03T00:37:46;2.13;;;1.93;;
7665;SDS011;3875;46.562;4.898;2023-04-03T00:40:13;2.37;;;2.13;;
7665;SDS011;3875;46.562;4.898;2023-04-03T00:42:40;2.07;;;1.90;;
7665;SDS011;3875;46.562;4.898;2023-04-03T00:47:35;2.40;;;2.20;;
7665;SDS011;3875;46.562;4.898;2023-04-03T00:50:03;4.43;;;2.27;;
7665;SDS011;3875;46.562;4.898;2023-04-03T00:52:29;2.20;;;1.93;;
7665;SDS011;3875;46.562;4.898;2023-04-03T00:55:00;4.30;;;2.43;;
7665;SDS011;3875;46.562;4.898;2023-04-03T00:57:29;3.90;;;2.27;;
7665;SDS011;3875;46.562;4.898;2023-04-03T00:59:57;3.77;;;2.60;;
7665;SDS011;3875;46.562;4.898;2023-04-03T01:02:29;2.50;;;2.23;;
7665;SDS011;3875;46.562;4.898;2023-04-03T01:04:55;5.73;;;2.87;;
7665;SDS011;3875;46.562;4.898;2023-04-03T01:07:22;4.60;;;3.00;;
7665;SDS011;3875;46.562;4.898;2023-04-03T01:09:52;2.60;;;2.40;;
7665;SDS011;3875;46.562;4.898;2023-04-03T01:12:24;2.73;;;2.53;;
7665;SDS011;3875;46.562;4.898;2023-04-03T01:14:56;2.93;;;2.60;;
7665;SDS011;3875;46.562;4.898;2023-04-03T01:25:41;3.27;;;2.97;;
7665;SDS011;3875;46.562;4.898;2023-04-03T01:28:09;7.33;;;3.13;;
7665;SDS011;3875;46.562;4.898;2023-04-03T01:30:39;3.43;;;3.13;;
7665;SDS011;3875;46.562;4.898;2023-04-03T01:33:12;3.77;;;3.33;;
7665;SDS011;3875;46.562;4.898;2023-04-03T01:35:38;3.63;;;2.77;;
7665;SDS011;3875;46.562;4.898;2023-04-03T01:38:04;3.77;;;3.10;;
7665;SDS011;3875;46.562;4.898;2023-04-03T01:40:29;4.30;;;3.47;;
7665;SDS011;3875;46.562;4.898;2023-04-03T01:42:55;4.47;;;3.73;;
7665;SDS011;3875;46.562;4.898;2023-04-03T01:45:21;6.10;;;3.37;;
7665;SDS011;3875;46.562;4.898;2023-04-03T01:47:46;4.33;;;3.90;;
7665;SDS011;3875;46.562;4.898;2023-04-03T01:50:12;4.80;;;3.87;;
7665;SDS011;3875;46.562;4.898;2023-04-03T01:52:38;4.40;;;3.53;;
7665;SDS011;3875;46.562;4.898;2023-04-03T01:55:03;5.03;;;4.20;;
7665;SDS011;3875;46.562;4.898;2023-04-03T01:57:29;4.23;;;3.10;;
7665;SDS011;3875;46.562;4.898;2023-04-03T01:59:55;6.47;;;5.00;;
7665;SDS011;3875;46.562;4.898;2023-04-03T02:02:21;5.13;;;4.13;;
7665;SDS011;3875;46.562;4.898;2023-04-03T02:04:46;6.57;;;4.93;;
7665;SDS011;3875;46.562;4.898;2023-04-03T02:07:12;5.23;;;4.17;;
7665;SDS011;3875;46.562;4.898;2023-04-03T02:09:37;7.43;;;5.87;;
7665;SDS011;3875;46.562;4.898;2023-04-03T02:12:03;7.67;;;5.77;;
7665;SDS011;3875;46.562;4.898;2023-04-03T02:14:29;6.73;;;5.70;;
7665;SDS011;3875;46.562;4.898;2023-04-03T02:16:55;7.83;;;5.93;;
7665;SDS011;3875;46.562;4.898;2023-04-03T02:19:20;7.53;;;6.00;;
7665;SDS011;3875;46.562;4.898;2023-04-03T02:21:46;7.57;;;5.80;;
7665;SDS011;3875;46.562;4.898;2023-04-03T02:24:12;9.00;;;6.40;;
7665;SDS011;3875;46.562;4.898;2023-04-03T02:26:37;9.17;;;6.67;;
7665;SDS011;3875;46.562;4.898;2023-04-03T02:29:03;10.17;;;6.93;;
7665;SDS011;3875;46.562;4.898;2023-04-03T02:31:28;8.33;;;6.77;;
7665;SDS011;3875;46.562;4.898;2023-04-03T02:33:54;8.57;;;6.80;;
7665;SDS011;3875;46.562;4.898;2023-04-03T02:36:20;9.07;;;5.77;;
7665;SDS011;3875;46.562;4.898;2023-04-03T02:38:45;9.77;;;7.57;;
7665;SDS011;3875;46.562;4.898;2023-04-03T02:41:12;10.80;;;8.27;;
7665;SDS011;3875;46.562;4.898;2023-04-03T02:43:38;10.80;;;7.70;;
7665;SDS011;3875;46.562;4.898;2023-04-03T02:46:04;11.57;;;8.77;;
7665;SDS011;3875;46.562;4.898;2023-04-03T02:48:30;11.77;;;9.23;;
7665;SDS011;3875;46.562;4.898;2023-04-03T02:50:56;12.30;;;9.43;;
7665;SDS011;3875;46.562;4.898;2023-04-03T02:53:22;11.00;;;7.37;;
7665;SDS011;3875;46.562;4.898;2023-04-03T02:55:48;13.23;;;10.00;;
7665;SDS011;3875;46.562;4.898;2023-04-03T02:58:14;10.93;;;8.57;;
7665;SDS011;3875;46.562;4.898;2023-04-03T03:00:40;12.27;;;9.73;;
7665;SDS011;3875;46.562;4.898;2023-04-03T03:03:06;7.57;;;5.23;;
7665;SDS011;3875;46.562;4.898;2023-04-03T03:05:31;10.73;;;7.97;;
7665;SDS011;3875;46.562;4.898;2023-04-03T03:07:57;8.70;;;7.00;;
7665;SDS011;3875;46.562;4.898;2023-04-03T03:10:23;8.20;;;6.20;;
7665;SDS011;3875;46.562;4.898;2023-04-03T03:12:48;13.97;;;10.20;;
7665;SDS011;3875;46.562;4.898;2023-04-03T03:15:14;11.33;;;8.60;;
7665;SDS011;3875;46.562;4.898;2023-04-03T03:17:40;13.50;;;9.43;;
7665;SDS011;3875;46.562;4.898;2023-04-03T03:20:06;7.03;;;5.90;;
7665;SDS011;3875;46.562;4.898;2023-04-03T03:22:33;6.97;;;4.90;;
7665;SDS011;3875;46.562;4.898;2023-04-03T03:24:59;13.23;;;9.47;;
7665;SDS011;3875;46.562;4.898;2023-04-03T03:27:25;7.77;;;4.03;;
7665;SDS011;3875;46.562;4.898;2023-04-03T03:29:51;11.70;;;9.57;;
7665;SDS011;3875;46.562;4.898;2023-04-03T03:32:17;12.63;;;9.37;;
7665;SDS011;3875;46.562;4.898;2023-04-03T03:34:43;7.47;;;5.90;;
7665;SDS011;3875;46.562;4.898;2023-04-03T03:37:08;6.57;;;4.70;;
7665;SDS011;3875;46.562;4.898;2023-04-03T03:39:34;4.90;;;3.93;;
7665;SDS011;3875;46.562;4.898;2023-04-03T03:42:00;7.17;;;4.87;;
7665;SDS011;3875;46.562;4.898;2023-04-03T03:44:25;8.10;;;5.80;;
7665;SDS011;3875;46.562;4.898;2023-04-03T03:46:52;5.23;;;4.23;;
7665;SDS011;3875;46.562;4.898;2023-04-03T03:49:18;5.93;;;4.67;;
7665;SDS011;3875;46.562;4.898;2023-04-03T03:51:44;6.83;;;4.40;;
7665;SDS011;3875;46.562;4.898;2023-04-03T03:54:10;8.00;;;4.73;;
7665;SDS011;3875;46.562;4.898;2023-04-03T03:56:36;11.20;;;8.23;;
7665;SDS011;3875;46.562;4.898;2023-04-03T03:59:01;8.87;;;5.67;;
7665;SDS011;3875;46.562;4.898;2023-04-03T04:01:27;8.87;;;6.37;;
7665;SDS011;3875;46.562;4.898;2023-04-03T04:03:53;4.60;;;3.33;;
7665;SDS011;3875;46.562;4.898;2023-04-03T04:06:19;4.17;;;3.43;;
7665;SDS011;3875;46.562;4.898;2023-04-03T04:08:46;10.10;;;8.00;;
7665;SDS011;3875;46.562;4.898;2023-04-03T04:11:12;10.57;;;6.80;;
7665;SDS011;3875;46.562;4.898;2023-04-03T04:13:38;10.27;;;7.97;;
7665;SDS011;3875;46.562;4.898;2023-04-03T04:16:04;7.73;;;6.37;;
7665;SDS011;3875;46.562;4.898;2023-04-03T04:18:30;10.03;;;7.70;;
7665;SDS011;3875;46.562;4.898;2023-04-03T04:20:55;13.43;;;10.97;;
7665;SDS011;3875;46.562;4.898;2023-04-03T04:23:21;17.20;;;7.50;;
7665;SDS011;3875;46.562;4.898;2023-04-03T04:25:47;12.87;;;9.47;;
7665;SDS011;3875;46.562;4.898;2023-04-03T04:28:14;9.13;;;7.33;;
7665;SDS011;3875;46.562;4.898;2023-04-03T04:30:40;13.00;;;8.57;;
7665;SDS011;3875;46.562;4.898;2023-04-03T04:33:06;13.20;;;9.50;;
7665;SDS011;3875;46.562;4.898;2023-04-03T04:35:32;12.97;;;9.87;;
7665;SDS011;3875;46.562;4.898;2023-04-03T04:37:58;7.27;;;5.47;;
7665;SDS011;3875;46.562;4.898;2023-04-03T04:40:25;8.67;;;6.17;;
7665;SDS011;3875;46.562;4.898;2023-04-03T04:42:51;5.67;;;3.83;;
7665;SDS011;3875;46.562;4.898;2023-04-03T04:45:17;14.93;;;10.03;;
7665;SDS011;3875;46.562;4.898;2023-04-03T04:47:43;7.47;;;5.40;;
7665;SDS011;3875;46.562;4.898;2023-04-03T04:50:09;15.23;;;10.00;;
7665;SDS011;3875;46.562;4.898;2023-04-03T04:52:36;7.10;;;4.60;;
7665;SDS011;3875;46.562;4.898;2023-04-03T04:55:02;7.23;;;5.23;;
7665;SDS011;3875;46.562;4.898;2023-04-03T04:57:28;4.90;;;4.23;;
7665;SDS011;3875;46.562;4.898;2023-04-03T04:59:54;5.07;;;4.57;;
7665;SDS011;3875;46.562;4.898;2023-04-03T05:02:19;10.63;;;7.17;;
7665;SDS011;3875;46.562;4.898;2023-04-03T05:04:45;4.87;;;3.87;;
7665;SDS011;3875;46.562;4.898;2023-04-03T05:07:10;5.70;;;3.77;;
7665;SDS011;3875;46.562;4.898;2023-04-03T05:09:36;4.47;;;3.30;;
7665;SDS011;3875;46.562;4.898;2023-04-03T05:12:02;8.40;;;4.10;;
7665;SDS011;3875;46.562;4.898;2023-04-03T05:14:28;10.00;;;3.57;;
7665;SDS011;3875;46.562;4.898;2023-04-03T05:16:54;9.00;;;5.90;;
7665;SDS011;3875;46.562;4.898;2023-04-03T05:19:20;5.77;;;4.07;;
7665;SDS011;3875;46.562;4.898;2023-04-03T05:21:46;9.80;;;6.57;;
7665;SDS011;3875;46.562;4.898;2023-04-03T05:24:12;6.97;;;3.93;;
7665;SDS011;3875;46.562;4.898;2023-04-03T05:26:38;10.10;;;6.20;;
7665;SDS011;3875;46.562;4.898;2023-04-03T05:29:04;5.77;;;3.73;;
7665;SDS011;3875;46.562;4.898;2023-04-03T05:31:30;7.20;;;4.60;;
7665;SDS011;3875;46.562;4.898;2023-04-03T05:33:56;6.87;;;4.63;;
7665;SDS011;3875;46.562;4.898;2023-04-03T05:36:22;10.63;;;6.77;;
7665;SDS011;3875;46.562;4.898;2023-04-03T05:38:47;17.57;;;8.17;;
7665;SDS011;3875;46.562;4.898;2023-04-03T05:41:13;10.73;;;7.23;;
7665;SDS011;3875;46.562;4.898;2023-04-03T05:43:40;4.83;;;3.00;;
7665;SDS011;3875;46.562;4.898;2023-04-03T05:46:13;11.83;;;8.03;;
7665;SDS011;3875;46.562;4.898;2023-04-03T05:48:43;11.43;;;6.97;;
7665;SDS011;3875;46.562;4.898;2023-04-03T05:51:17;10.17;;;7.70;;
7665;SDS011;3875;46.562;4.898;2023-04-03T05:53:44;18.03;;;9.07;;
7665;SDS011;3875;46.562;4.898;2023-04-03T05:56:11;16.17;;;10.37;;
7665;SDS011;3875;46.562;4.898;2023-04-03T05:58:37;9.80;;;6.50;;
7665;SDS011;3875;46.562;4.898;2023-04-03T06:01:03;7.43;;;5.00;;
7665;SDS011;3875;46.562;4.898;2023-04-03T06:03:30;14.10;;;8.70;;
7665;SDS011;3875;46.562;4.898;2023-04-03T06:05:56;8.97;;;5.47;;
7665;SDS011;3875;46.562;4.898;2023-04-03T06:08:22;7.50;;;6.27;;
7665;SDS011;3875;46.562;4.898;2023-04-03T06:10:48;12.67;;;8.60;;
7665;SDS011;3875;46.562;4.898;2023-04-03T06:13:15;18.17;;;10.00;;
7665;SDS011;3875;46.562;4.898;2023-04-03T06:15:41;7.37;;;5.33;;
7665;SDS011;3875;46.562;4.898;2023-04-03T06:18:07;6.20;;;4.60;;
7665;SDS011;3875;46.562;4.898;2023-04-03T06:20:33;7.30;;;5.47;;
7665;SDS011;3875;46.562;4.898;2023-04-03T06:22:58;7.93;;;5.77;;
7665;SDS011;3875;46.562;4.898;2023-04-03T06:25:24;13.10;;;9.40;;
7665;SDS011;3875;46.562;4.898;2023-04-03T06:27:51;16.60;;;8.77;;
7665;SDS011;3875;46.562;4.898;2023-04-03T06:30:17;15.47;;;10.03;;
7665;SDS011;3875;46.562;4.898;2023-04-03T06:32:43;15.83;;;8.97;;
7665;SDS011;3875;46.562;4.898;2023-04-03T06:35:09;7.77;;;4.33;;
7665;SDS011;3875;46.562;4.898;2023-04-03T06:37:35;15.33;;;10.83;;
7665;SDS011;3875;46.562;4.898;2023-04-03T06:40:00;12.80;;;8.57;;
7665;SDS011;3875;46.562;4.898;2023-04-03T06:42:27;14.13;;;10.73;;
7665;SDS011;3875;46.562;4.898;2023-04-03T06:44:53;17.97;;;10.27;;
7665;SDS011;3875;46.562;4.898;2023-04-03T06:47:19;11.17;;;7.80;;
7665;SDS011;3875;46.562;4.898;2023-04-03T06:49:45;13.80;;;9.13;;
7665;SDS011;3875;46.562;4.898;2023-04-03T06:52:10;13.03;;;9.50;;
7665;SDS011;3875;46.562;4.898;2023-04-03T06:54:40;12.13;;;7.30;;
7665;SDS011;3875;46.562;4.898;2023-04-03T06:57:06;7.07;;;5.67;;
7665;SDS011;3875;46.562;4.898;2023-04-03T06:59:32;14.37;;;7.47;;
7665;SDS011;3875;46.562;4.898;2023-04-03T07:01:59;8.70;;;6.47;;
7665;SDS011;3875;46.562;4.898;2023-04-03T07:04:25;11.63;;;7.80;;
7665;SDS011;3875;46.562;4.898;2023-04-03T07:06:51;13.43;;;9.37;;
7665;SDS011;3875;46.562;4.898;2023-04-03T07:09:17;9.53;;;7.13;;
7665;SDS011;3875;46.562;4.898;2023-04-03T07:11:43;12.43;;;7.90;;
7665;SDS011;3875;46.562;4.898;2023-04-03T07:14:09;15.13;;;10.43;;
7665;SDS011;3875;46.562;4.898;2023-04-03T07:16:35;13.63;;;7.83;;
7665;SDS011;3875;46.562;4.898;2023-04-03T07:19:01;12.80;;;7.43;;
7665;SDS011;3875;46.562;4.898;2023-04-03T07:21:27;4.77;;;3.67;;
7665;SDS011;3875;46.562;4.898;2023-04-03T07:23:54;13.27;;;9.10;;
7665;SDS011;3875;46.562;4.898;2023-04-03T07:26:20;9.40;;;6.57;;
7665;SDS011;3875;46.562;4.898;2023-04-03T07:28:47;12.03;;;8.13;;
7665;SDS011;3875;46.562;4.898;2023-04-03T07:31:14;9.37;;;6.10;;
7665;SDS011;3875;46.562;4.898;2023-04-03T07:33:40;12.87;;;8.93;;
7665;SDS011;3875;46.562;4.898;2023-04-03T07:36:06;14.80;;;9.97;;
7665;SDS011;3875;46.562;4.898;2023-04-03T07:38:34;4.10;;;3.40;;
7665;SDS011;3875;46.562;4.898;2023-04-03T07:41:00;6.07;;;3.47;;
7665;SDS011;3875;46.562;4.898;2023-04-03T07:43:26;7.43;;;4.53;;
7665;SDS011;3875;46.562;4.898;2023-04-03T07:45:52;11.87;;;8.07;;
7665;SDS011;3875;46.562;4.898;2023-04-03T07:48:20;6.27;;;4.70;;
7665;SDS011;3875;46.562;4.898;2023-04-03T07:50:47;6.00;;;5.07;;
7665;SDS011;3875;46.562;4.898;2023-04-03T07:53:12;7.97;;;5.87;;
7665;SDS011;3875;46.562;4.898;2023-04-03T07:55:38;6.27;;;4.63;;
7665;SDS011;3875;46.562;4.898;2023-04-03T07:58:11;4.70;;;3.43;;
7665;SDS011;3875;46.562;4.898;2023-04-03T08:00:39;11.33;;;6.53;;
7665;SDS011;3875;46.562;4.898;2023-04-03T08:03:06;8.63;;;5.57;;
7665;SDS011;3875;46.562;4.898;2023-04-03T08:05:36;11.40;;;8.13;;
7665;SDS011;3875;46.562;4.898;2023-04-03T08:08:03;8.57;;;6.27;;
7665;SDS011;3875;46.562;4.898;2023-04-03T08:10:30;7.73;;;5.77;;
7665;SDS011;3875;46.562;4.898;2023-04-03T08:12:56;6.67;;;5.17;;
7665;SDS011;3875;46.562;4.898;2023-04-03T08:15:22;3.23;;;2.57;;
7665;SDS011;3875;46.562;4.898;2023-04-03T08:17:49;4.00;;;3.50;;
7665;SDS011;3875;46.562;4.898;2023-04-03T08:20:15;11.33;;;8.10;;
7665;SDS011;3875;46.562;4.898;2023-04-03T08:22:41;8.43;;;6.20;;
7665;SDS011;3875;46.562;4.898;2023-04-03T08:25:07;6.83;;;4.80;;
7665;SDS011;3875;46.562;4.898;2023-04-03T08:27:33;6.70;;;5.57;;
7665;SDS011;3875;46.562;4.898;2023-04-03T08:29:59;11.07;;;7.17;;
7665;SDS011;3875;46.562;4.898;2023-04-03T08:32:25;8.53;;;6.77;;
7665;SDS011;3875;46.562;4.898;2023-04-03T08:34:52;8.17;;;6.33;;
7665;SDS011;3875;46.562;4.898;2023-04-03T08:37:17;8.83;;;7.47;;
7665;SDS011;3875;46.562;4.898;2023-04-03T08:39:44;4.17;;;3.13;;
7665;SDS011;3875;46.562;4.898;2023-04-03T08:45:18;8.53;;;5.57;;
7665;SDS011;3875;46.562;4.898;2023-04-03T08:51:08;3.77;;;2.40;;
7665;SDS011;3875;46.562;4.898;2023-04-03T08:53:27;7.10;;;5.07;;
7665;SDS011;3875;46.562;4.898;2023-04-03T08:55:57;10.17;;;6.03;;
7665;SDS011;3875;46.562;4.898;2023-04-03T08:58:28;3.27;;;2.40;;
7665;SDS011;3875;46.562;4.898;2023-04-03T09:00:58;8.57;;;6.37;;
7665;SDS011;3875;46.562;4.898;2023-04-03T09:03:31;2.60;;;2.17;;
7665;SDS011;3875;46.562;4.898;2023-04-03T09:08:34;9.57;;;6.90;;
7665;SDS011;3875;46.562;4.898;2023-04-03T09:11:11;4.15;;;3.45;;
7665;SDS011;3875;46.562;4.898;2023-04-03T09:21:57;2.03;;;1.83;;
7665;SDS011;3875;46.562;4.898;2023-04-03T09:24:25;2.80;;;2.17;;
7665;SDS011;3875;46.562;4.898;2023-04-03T09:26:58;4.20;;;3.40;;
7665;SDS011;3875;46.562;4.898;2023-04-03T09:29:29;5.20;;;3.60;;
7665;SDS011;3875;46.562;4.898;2023-04-03T09:31:59;6.07;;;4.80;;
7665;SDS011;3875;46.562;4.898;2023-04-03T09:34:35;7.07;;;4.83;;
7665;SDS011;3875;46.562;4.898;2023-04-03T09:37:02;3.90;;;2.77;;
7665;SDS011;3875;46.562;4.898;2023-04-03T09:39:48;5.13;;;3.10;;
7665;SDS011;3875;46.562;4.898;2023-04-03T09:42:24;3.40;;;2.87;;
7665;SDS011;3875;46.562;4.898;2023-04-03T09:45:18;4.30;;;3.10;;
7665;SDS011;3875;46.562;4.898;2023-04-03T09:47:47;4.33;;;3.30;;
7665;SDS011;3875;46.562;4.898;2023-04-03T09:52:42;2.90;;;2.53;;
7665;SDS011;3875;46.562;4.898;2023-04-03T09:55:14;3.77;;;3.23;;
7665;SDS011;3875;46.562;4.898;2023-04-03T09:57:40;4.33;;;3.93;;
7665;SDS011;3875;46.562;4.898;2023-04-03T10:00:06;3.83;;;2.60;;
7665;SDS011;3875;46.562;4.898;2023-04-03T10:02:51;3.13;;;2.67;;
7665;SDS011;3875;46.562;4.898;2023-04-03T10:05:30;3.43;;;3.13;;
7665;SDS011;3875;46.562;4.898;2023-04-03T10:10:45;2.27;;;2.07;;
7665;SDS011;3875;46.562;4.898;2023-04-03T10:13:14;3.60;;;3.30;;
7665;SDS011;3875;46.562;4.898;2023-04-03T10:15:45;6.83;;;5.07;;
7665;SDS011;3875;46.562;4.898;2023-04-03T10:20:49;4.33;;;2.90;;
7665;SDS011;3875;46.562;4.898;2023-04-03T10:23:20;5.83;;;4.03;;
7665;SDS011;3875;46.562;4.898;2023-04-03T10:26:05;4.30;;;3.90;;
7665;SDS011;3875;46.562;4.898;2023-04-03T10:28:57;2.13;;;1.73;;
7665;SDS011;3875;46.562;4.898;2023-04-03T10:34:42;2.20;;;1.93;;
7665;SDS011;3875;46.562;4.898;2023-04-03T10:39:57;4.90;;;3.97;;
7665;SDS011;3875;46.562;4.898;2023-04-03T10:59:06;6.37;;;4.67;;
7665;SDS011;3875;46.562;4.898;2023-04-03T11:01:53;2.87;;;2.60;;
7665;SDS011;3875;46.562;4.898;2023-04-03T11:04:33;3.95;;;3.35;;
7665;SDS011;3875;46.562;4.898;2023-04-03T11:07:10;4.30;;;3.13;;
7665;SDS011;3875;46.562;4.898;2023-04-03T11:09:50;4.73;;;3.27;;
7665;SDS011;3875;46.562;4.898;2023-04-03T11:12:23;6.13;;;3.77;;
7665;SDS011;3875;46.562;4.898;2023-04-03T11:14:53;5.93;;;4.60;;
7665;SDS011;3875;46.562;4.898;2023-04-03T11:17:23;7.70;;;4.73;;
7665;SDS011;3875;46.562;4.898;2023-04-03T11:22:43;6.40;;;3.23;;
7665;SDS011;3875;46.562;4.898;2023-04-03T11:25:19;5.63;;;4.87;;
7665;SDS011;3875;46.562;4.898;2023-04-03T11:27:50;4.63;;;4.23;;
7665;SDS011;3875;46.562;4.898;2023-04-03T11:30:28;2.87;;;2.37;;
7665;SDS011;3875;46.562;4.898;2023-04-03T11:36:47;6.13;;;3.57;;
7665;SDS011;3875;46.562;4.898;2023-04-03T11:39:19;3.53;;;3.03;;
7665;SDS011;3875;46.562;4.898;2023-04-03T11:41:55;6.17;;;4.37;;
7665;SDS011;3875;46.562;4.898;2023-04-03T11:44:37;4.60;;;3.83;;
7665;SDS011;3875;46.562;4.898;2023-04-03T11:47:04;3.50;;;3.20;;
7665;SDS011;3875;46.562;4.898;2023-04-03T11:49:53;5.93;;;3.80;;
7665;SDS011;3875;46.562;4.898;2023-04-03T12:05:55;2.23;;;2.03;;
7665;SDS011;3875;46.562;4.898;2023-04-03T12:08:43;3.13;;;2.87;;
7665;SDS011;3875;46.562;4.898;2023-04-03T12:14:22;2.47;;;2.27;;
7665;SDS011;3875;46.562;4.898;2023-04-03T12:26:44;5.87;;;3.50;;
7665;SDS011;3875;46.562;4.898;2023-04-03T12:32:15;4.17;;;2.90;;
7665;SDS011;3875;46.562;4.898;2023-04-03T12:46:03;4.03;;;2.47;;
7665;SDS011;3875;46.562;4.898;2023-04-03T12:48:31;1.43;;;1.33;;
7665;SDS011;3875;46.562;4.898;2023-04-03T12:51:09;2.30;;;1.97;;
7665;SDS011;3875;46.562;4.898;2023-04-03T12:53:40;2.17;;;1.80;;
7665;SDS011;3875;46.562;4.898;2023-04-03T12:58:57;2.80;;;2.40;;
7665;SDS011;3875;46.562;4.898;2023-04-03T13:01:43;3.37;;;2.90;;
7665;SDS011;3875;46.562;4.898;2023-04-03T13:04:17;2.03;;;1.47;;
7665;SDS011;3875;46.562;4.898;2023-04-03T13:06:43;3.90;;;3.50;;
7665;SDS011;3875;46.562;4.898;2023-04-03T13:09:43;2.40;;;2.20;;
7665;SDS011;3875;46.562;4.898;2023-04-03T13:12:03;1.43;;;1.33;;
7665;SDS011;3875;46.562;4.898;2023-04-03T13:14:36;1.67;;;1.57;;
7665;SDS011;3875;46.562;4.898;2023-04-03T13:17:04;2.17;;;1.80;;
7665;SDS011;3875;46.562;4.898;2023-04-03T13:19:41;1.80;;;1.57;;
7665;SDS011;3875;46.562;4.898;2023-04-03T13:22:23;1.50;;;1.40;;
7665;SDS011;3875;46.562;4.898;2023-04-03T13:25:09;3.03;;;2.73;;
7665;SDS011;3875;46.562;4.898;2023-04-03T13:27:39;4.10;;;2.77;;
7665;SDS011;3875;46.562;4.898;2023-04-03T13:30:17;4.00;;;2.53;;
7665;SDS011;3875;46.562;4.898;2023-04-03T13:32:56;1.30;;;1.20;;
7665;SDS011;3875;46.562;4.898;2023-04-03T13:35:38;1.57;;;1.47;;
7665;SDS011;3875;46.562;4.898;2023-04-03T13:40:47;3.30;;;3.00;;
7665;SDS011;3875;46.562;4.898;2023-04-03T13:43:25;3.60;;;2.73;;
7665;SDS011;3875;46.562;4.898;2023-04-03T13:48:38;1.30;;;1.20;;
7665;SDS011;3875;46.562;4.898;2023-04-03T13:53:42;2.53;;;2.33;;
7665;SDS011;3875;46.562;4.898;2023-04-03T14:01:40;1.93;;;1.67;;
7665;SDS011;3875;46.562;4.898;2023-04-03T14:04:18;1.50;;;1.40;;
7665;SDS011;3875;46.562;4.898;2023-04-03T14:06:46;2.50;;;2.30;;
7665;SDS011;3875;46.562;4.898;2023-04-03T14:09:14;3.47;;;2.70;;
7665;SDS011;3875;46.562;4.898;2023-04-03T14:11:41;2.87;;;1.77;;
7665;SDS011;3875;46.562;4.898;2023-04-03T14:14:18;1.07;;;1.07;;
7665;SDS011;3875;46.562;4.898;2023-04-03T14:16:48;1.13;;;1.03;;
7665;SDS011;3875;46.562;4.898;2023-04-03T14:19:22;2.13;;;1.90;;
7665;SDS011;3875;46.562;4.898;2023-04-03T14:21:50;1.37;;;1.27;;
7665;SDS011;3875;46.562;4.898;2023-04-03T14:24:17;1.23;;;1.13;;
7665;SDS011;3875;46.562;4.898;2023-04-03T14:26:44;1.27;;;1.20;;
7665;SDS011;3875;46.562;4.898;2023-04-03T14:29:11;2.80;;;1.50;;
7665;SDS011;3875;46.562;4.898;2023-04-03T14:31:37;2.60;;;2.00;;
7665;SDS011;3875;46.562;4.898;2023-04-03T14:34:04;2.07;;;1.90;;
7665;SDS011;3875;46.562;4.898;2023-04-03T14:36:30;2.30;;;2.10;;
7665;SDS011;3875;46.562;4.898;2023-04-03T14:38:56;2.10;;;1.87;;
7665;SDS011;3875;46.562;4.898;2023-04-03T14:41:23;2.57;;;2.10;;
7665;SDS011;3875;46.562;4.898;2023-04-03T14:43:49;1.70;;;1.60;;
7665;SDS011;3875;46.562;4.898;2023-04-03T14:48:43;2.17;;;2.03;;
7665;SDS011;3875;46.562;4.898;2023-04-03T14:51:13;1.80;;;1.70;;
7665;SDS011;3875;46.562;4.898;2023-04-03T14:53:40;3.07;;;2.27;;
7665;SDS011;3875;46.562;4.898;2023-04-03T14:56:23;1.40;;;1.30;;
7665;SDS011;3875;46.562;4.898;2023-04-03T14:58:54;1.97;;;1.50;;
7665;SDS011;3875;46.562;4.898;2023-04-03T15:01:24;1.10;;;1.00;;
7665;SDS011;3875;46.562;4.898;2023-04-03T15:03:51;1.20;;;1.10;;
7665;SDS011;3875;46.562;4.898;2023-04-03T15:06:17;2.93;;;1.60;;
7665;SDS011;3875;46.562;4.898;2023-04-03T15:08:43;1.37;;;1.27;;
7665;SDS011;3875;46.562;4.898;2023-04-03T15:11:12;1.73;;;1.63;;
7665;SDS011;3875;46.562;4.898;2023-04-03T15:13:38;1.20;;;1.10;;
7665;SDS011;3875;46.562;4.898;2023-04-03T15:16:05;1.73;;;1.63;;
7665;SDS011;3875;46.562;4.898;2023-04-03T15:18:37;1.93;;;1.77;;
7665;SDS011;3875;46.562;4.898;2023-04-03T15:21:04;2.97;;;2.40;;
7665;SDS011;3875;46.562;4.898;2023-04-03T15:23:30;2.43;;;2.23;;
7665;SDS011;3875;46.562;4.898;2023-04-03T15:25:56;1.80;;;1.43;;
7665;SDS011;3875;46.562;4.898;2023-04-03T15:28:30;1.47;;;1.37;;
7665;SDS011;3875;46.562;4.898;2023-04-03T15:31:02;3.43;;;1.93;;
7665;SDS011;3875;46.562;4.898;2023-04-03T15:33:29;2.60;;;2.40;;
7665;SDS011;3875;46.562;4.898;2023-04-03T15:35:55;1.67;;;1.57;;
7665;SDS011;3875;46.562;4.898;2023-04-03T15:38:21;1.50;;;1.40;;
7665;SDS011;3875;46.562;4.898;2023-04-03T15:40:47;1.70;;;1.60;;
7665;SDS011;3875;46.562;4.898;2023-04-03T15:43:13;3.17;;;2.40;;
7665;SDS011;3875;46.562;4.898;2023-04-03T15:45:39;2.80;;;1.00;;
7665;SDS011;3875;46.562;4.898;2023-04-03T15:48:06;3.40;;;1.17;;
7665;SDS011;3875;46.562;4.898;2023-04-03T15:50:33;1.33;;;1.23;;
7665;SDS011;3875;46.562;4.898;2023-04-03T15:53:00;1.20;;;0.97;;
7665;SDS011;3875;46.562;4.898;2023-04-03T15:55:28;1.90;;;1.80;;
7665;SDS011;3875;46.562;4.898;2023-04-03T15:57:56;1.20;;;1.10;;
7665;SDS011;3875;46.562;4.898;2023-04-03T16:00:22;1.33;;;1.27;;
7665;SDS011;3875;46.562;4.898;2023-04-03T16:02:50;1.13;;;1.03;;
7665;SDS011;3875;46.562;4.898;2023-04-03T16:05:18;4.07;;;1.63;;
7665;SDS011;3875;46.562;4.898;2023-04-03T16:07:44;1.90;;;1.43;;
7665;SDS011;3875;46.562;4.898;2023-04-03T16:10:11;2.07;;;1.93;;
7665;SDS011;3875;46.562;4.898;2023-04-03T16:12:39;1.77;;;1.67;;
7665;SDS011;3875;46.562;4.898;2023-04-03T16:15:05;1.50;;;1.40;;
7665;SDS011;3875;46.562;4.898;2023-04-03T16:17:32;1.43;;;1.33;;
7665;SDS011;3875;46.562;4.898;2023-04-03T16:19:59;1.40;;;1.30;;
7665;SDS011;3875;46.562;4.898;2023-04-03T16:22:25;1.83;;;1.73;;
7665;SDS011;3875;46.562;4.898;2023-04-03T16:24:53;1.30;;;1.20;;
7665;SDS011;3875;46.562;4.898;2023-04-03T16:27:19;1.83;;;1.50;;
7665;SDS011;3875;46.562;4.898;2023-04-03T16:29:46;2.37;;;2.10;;
7665;SDS011;3875;46.562;4.898;2023-04-03T16:32:12;1.60;;;1.50;;
7665;SDS011;3875;46.562;4.898;2023-04-03T16:34:38;1.80;;;1.20;;
7665;SDS011;3875;46.562;4.898;2023-04-03T16:37:05;3.13;;;2.20;;
7665;SDS011;3875;46.562;4.898;2023-04-03T16:39:33;1.77;;;1.07;;
7665;SDS011;3875;46.562;4.898;2023-04-03T16:41:59;2.10;;;1.90;;
7665;SDS011;3875;46.562;4.898;2023-04-03T16:44:25;1.07;;;1.07;;
7665;SDS011;3875;46.562;4.898;2023-04-03T16:46:51;1.77;;;1.67;;
7665;SDS011;3875;46.562;4.898;2023-04-03T16:49:17;1.00;;;1.00;;
7665;SDS011;3875;46.562;4.898;2023-04-03T16:51:42;1.00;;;0.93;;
7665;SDS011;3875;46.562;4.898;2023-04-03T16:54:08;2.30;;;2.10;;
7665;SDS011;3875;46.562;4.898;2023-04-03T16:56:36;3.80;;;1.93;;
7665;SDS011;3875;46.562;4.898;2023-04-03T16:59:02;2.00;;;1.80;;
7665;SDS011;3875;46.562;4.898;2023-04-03T17:01:28;1.70;;;1.60;;
7665;SDS011;3875;46.562;4.898;2023-04-03T17:03:53;2.87;;;1.87;;
7665;SDS011;3875;46.562;4.898;2023-04-03T17:06:20;2.10;;;1.90;;
7665;SDS011;3875;46.562;4.898;2023-04-03T17:08:48;3.47;;;2.57;;
7665;SDS011;3875;46.562;4.898;2023-04-03T17:11:15;1.17;;;1.13;;
7665;SDS011;3875;46.562;4.898;2023-04-03T17:13:41;3.27;;;1.47;;
7665;SDS011;3875;46.562;4.898;2023-04-03T17:16:08;2.33;;;1.40;;
7665;SDS011;3875;46.562;4.898;2023-04-03T17:18:37;0.70;;;0.70;;
7665;SDS011;3875;46.562;4.898;2023-04-03T17:21:03;1.50;;;1.40;;
7665;SDS011;3875;46.562;4.898;2023-04-03T17:23:30;1.13;;;1.13;;